Vidal Ramos, Brazil
Current Conditions -  °F | °C
As of 6:40 PM on Thursday 29 Jan 2015 (Local Time) from SBFL Reporting Station
Moderate Rain Moderate Rain  
Wind Chill: 75°   Ceiling: 2700
Heat Index: 75°   Visibility: 2.1mi
Dew Point: 70°   Wind: 28mph
Humidity: 83%   Direction: 200°SSW
Pressure: 29.8"   Gusts: 41mph
Location:  27.38°S, 49.37°W
Report Text: SBFL 292040Z 20024G36KT 3500 RA SCT013 BKN027 24/21 Q1009
Loading
Personal Weather Stations






























Interactive Weather Map New forecast layout! Learn more

10-Day Weather Forecast

Advertisements
Track Severe Weather on mobile